LiveATC.Net - Listen to live air traffic control over the Internet!


ICAO: LMML  IATA: MLA   Airport: Malta International Airport
City: Luqa
Country: Malta   Continent: Europe
LMML METAR Weather: LMML 031445Z 29007KT 230V020 9999 FEW015 34/18 Q1009 NOSIG
LMML Flight Activity (FlightAware)
LMML Webcam:  (Airport Webcams) 

LMML GndTwr/App/Control
Feed Status: UP   Listeners: 0
Listen in your browser - HTML5 player (in browser, HTML5)
Click here to listen with your own player (launches your MP3 player)
Archive Access: LMML GndTwr/App/Control
FacilityFrequency
Emergency/Guard121.500
Luqa Ground121.600
Luqa Radar128.150
Luqa Tower135.100
Malta Radar - East123.625
Malta Radar - East (Secondary)127.525
Malta Radar - UHF284.500
Malta Radar - West130.975
Malta Radar - West (Secondary)122.775

NOTICE

Unauthorized use prohibited. See LiveATC.net Terms of Service


Airport/ARTCC Code
Frequency Search
(e.g., 124.400, 128.75)
Site-wide search
 


Browse Feeds
Top 50 Feeds
Coverage Map
Bad Weather Areas

LiveATC FAQ
Offer LiveATC feed
Contact LiveATC.net
Press Inquiries

LiveATC on iPhone
LiveATC on Android

Windows Phone
Windows 8/10

LiveATC Mobile
(Mobile browser)

ATC Audio Archives
Interesting Recordings

LiveATC Forums


Home Page
About LiveATC.net
Make a Donation
Terms of Use
Privacy Policy

Canadian Air Freqs

AIRMETs/SIGMETs

FAA Airport Status
Nat'l Airspace Status
Arrival Demand Charts


Server Software By:
Icecast.org
Liquidsoap